Time;durP1;ratioP1;P1;durP2;ratioP2;P2;SDS_P1;SDS_P2;PMS_P1;PMS_P2;Temp;Humidity;BMP_temperature;BMP_pressure;BME280_temperature;BME280_humidity;BME280_pressure;Samples;Min_cycle;Max_cycle;Signal;HPM_P1;HPM_P2
2022/12/13 00:00:53;;;;;;;12.58;8.55;;;;;;;-1.01;93.23;99812.92;2774834;84;21901;-93
2022/12/13 00:04:56;;;;;;;12.82;8.83;;;;;;;-1.01;93.23;99812.92;2802969;83;21099;-93
2022/12/13 00:08:58;;;;;;;10.03;6.85;;;;;;;-1.24;92.39;99812.55;2776269;84;20993;-94
2022/12/13 00:12:59;;;;;;;13.72;9.15;;;;;;;-1.24;92.39;99812.55;2777579;84;21006;-93
2022/12/13 00:17:01;;;;;;;12.70;8.13;;;;;;;-1.14;93.16;99820.41;2803563;83;21061;-94
2022/12/13 00:21:08;;;;;;;13.28;9.30;;;;;;;-1.23;93.36;99816.41;2786795;84;21036;-91
2022/12/13 00:25:09;;;;;;;7.80;5.83;;;;;;;-1.28;93.74;99809.67;2769353;83;21197;-91
2022/12/13 00:29:11;;;;;;;12.78;6.78;;;;;;;-1.29;93.97;99821.86;2791944;83;21098;-91
2022/12/13 00:33:12;;;;;;;14.55;7.87;;;;;;;-1.23;93.60;99830.77;2717168;85;21057;-94
2022/12/13 00:37:13;;;;;;;17.40;11.28;;;;;;;-1.36;93.73;99831.72;2812471;84;21677;-92
2022/12/13 00:41:18;;;;;;;10.40;7.28;;;;;;;-1.28;94.06;99830.55;2813262;83;21058;-93
2022/12/13 00:45:19;;;;;;;14.40;7.85;;;;;;;-1.36;94.84;99832.16;2813570;83;21019;-93
2022/12/13 00:49:20;;;;;;;12.63;7.95;;;;;;;-1.34;94.36;99836.86;2822251;83;21065;-95
2022/12/13 00:53:21;;;;;;;11.35;7.22;;;;;;;-1.41;94.34;99832.80;2810724;83;21039;-93
2022/12/13 00:57:22;;;;;;;10.58;7.53;;;;;;;-1.38;93.68;99833.52;2741618;86;21160;-93
2022/12/13 01:01:28;;;;;;;14.95;8.35;;;;;;;-1.34;93.91;99833.81;2784026;83;21046;-94
2022/12/13 01:05:29;;;;;;;11.83;7.63;;;;;;;-1.28;94.04;99844.44;2803682;83;21006;-93
2022/12/13 01:09:32;;;;;;;12.50;9.05;;;;;;;-1.30;93.21;99846.26;2810527;83;21477;-94
2022/12/13 01:13:34;;;;;;;9.18;6.28;;;;;;;-1.34;93.91;99840.33;2791989;83;21119;-94
2022/12/13 01:17:35;;;;;;;16.15;8.25;;;;;;;-1.35;93.07;99842.98;2824230;83;21038;-94
2022/12/13 01:21:37;;;;;;;14.25;8.48;;;;;;;-1.32;92.50;99851.56;2795634;83;21058;-94
2022/12/13 01:25:38;;;;;;;14.07;10.40;;;;;;;-1.35;93.19;99841.25;2801845;83;21012;-92
2022/12/13 01:29:39;;;;;;;10.55;7.40;;;;;;;-1.40;92.42;99824.06;2778253;85;21654;-93
2022/12/13 01:33:41;;;;;;;13.50;8.30;;;;;;;-1.39;91.82;99838.34;2784048;83;21023;-93
2022/12/13 01:37:42;;;;;;;10.20;7.83;;;;;;;-1.35;91.48;99831.25;2808794;83;21504;-93
2022/12/13 01:41:47;;;;;;;12.35;6.97;;;;;;;-1.32;91.01;99833.29;2824573;83;21112;-94
2022/12/13 01:45:51;;;;;;;10.05;8.10;;;;;;;-1.37;90.67;99824.80;2816288;83;21057;-94
2022/12/13 01:49:55;;;;;;;9.78;6.95;;;;;;;-1.38;90.78;99837.42;2813580;83;21025;-92
2022/12/13 01:54:01;;;;;;;13.13;7.50;;;;;;;-1.50;90.86;99844.45;2786013;85;20979;-90
2022/12/13 01:58:04;;;;;;;11.27;6.23;;;;;;;-1.48;90.47;99848.68;2826235;83;21586;-94
2022/12/13 02:02:08;;;;;;;12.43;9.48;;;;;;;-1.54;89.77;99848.93;2801381;83;21079;-93
2022/12/13 02:06:15;;;;;;;11.97;6.60;;;;;;;-1.75;90.72;99838.88;2802302;83;21112;-95
2022/12/13 02:10:17;;;;;;;15.60;9.30;;;;;;;-1.65;91.04;99853.73;2802099;85;21026;-93
2022/12/13 02:14:18;;;;;;;17.80;8.55;;;;;;;-1.62;90.27;99854.44;2794876;83;21086;-94
2022/12/13 02:18:33;;;;;;;9.05;6.60;;;;;;;-1.60;89.16;99856.53;2847795;82;21058;-95
2022/12/13 02:23:22;;;;;;;8.70;6.47;;;;;;;-1.72;87.99;99847.89;2831949;82;21058;-93
2022/12/13 02:27:44;;;;;;;12.60;5.97;;;;;;;-1.74;88.03;99851.02;2834372;81;21542;-94
2022/12/13 02:32:02;;;;;;;11.57;7.47;;;;;;;-1.91;88.74;99851.19;2823322;82;21095;-92
2022/12/13 02:36:18;;;;;;;11.40;7.03;;;;;;;-2.04;88.64;99842.11;2802219;82;21069;-94
2022/12/13 02:40:29;;;;;;;10.18;7.12;;;;;;;-2.05;88.56;99845.62;2827551;82;21095;-94
2022/12/13 02:44:45;;;;;;;8.80;6.75;;;;;;;-2.23;88.73;99842.78;2806313;84;20997;-93
2022/12/13 02:48:49;;;;;;;10.58;6.05;;;;;;;-2.18;89.07;99840.02;2842117;82;21028;-94
2022/12/13 02:52:51;;;;;;;15.23;8.28;;;;;;;-2.31;89.66;99841.75;2831129;82;21003;-92
2022/12/13 02:56:56;;;;;;;9.93;7.72;;;;;;;-2.27;91.19;99835.98;2831583;82;21004;-93
2022/12/13 03:01:27;;;;;;;9.73;8.00;;;;;;;-1.98;91.63;99835.36;2833291;82;21044;-95
2022/12/13 03:10:14;;;;;;;10.28;7.67;;;;;;;-1.47;91.72;99841.72;2867868;82;21113;-94
2022/12/13 03:14:19;;;;;;;11.90;8.58;;;;;;;-1.47;91.72;99841.72;2861849;82;21062;-93
2022/12/13 03:18:24;;;;;;;14.55;7.75;;;;;;;-1.20;90.55;99814.98;2821984;83;21041;-92
2022/12/13 03:22:25;;;;;;;13.20;8.78;;;;;;;-1.08;89.50;99807.09;2817692;83;21048;-93
2022/12/13 03:26:27;;;;;;;12.20;7.08;;;;;;;-0.86;88.73;99825.78;2835153;81;21582;-91
2022/12/13 03:30:30;;;;;;;12.75;7.87;;;;;;;-0.86;88.73;99825.78;2815020;83;21556;-93
2022/12/13 03:34:32;;;;;;;13.40;8.63;;;;;;;-0.80;88.34;99827.30;2786523;83;21046;-95
2022/12/13 03:38:33;;;;;;;10.88;8.03;;;;;;;-0.79;87.91;99819.85;2815972;83;21043;-94
2022/12/13 03:42:34;;;;;;;13.85;8.28;;;;;;;-0.80;88.04;99818.16;2837149;83;21055;-95
2022/12/13 03:46:36;;;;;;;12.58;9.03;;;;;;;-0.78;88.66;99832.86;2836210;81;21032;-95
2022/12/13 03:50:37;;;;;;;14.37;9.10;;;;;;;-0.75;88.58;99824.89;2760655;83;21063;-95
2022/12/13 03:54:38;;;;;;;12.75;10.00;;;;;;;-0.72;89.04;99823.89;2812107;83;22389;-95
2022/12/13 03:58:43;;;;;;;21.55;10.38;;;;;;;-0.67;89.46;99831.54;2809234;83;21579;-92
2022/12/13 04:02:44;;;;;;;15.93;10.85;;;;;;;-0.67;89.66;99828.93;2819202;83;21749;-94
2022/12/13 04:06:46;;;;;;;15.70;9.75;;;;;;;-0.64;89.90;99830.09;2761204;83;21048;-95
2022/12/13 04:10:47;;;;;;;18.90;10.90;;;;;;;-0.61;89.46;99822.12;2708069;84;21513;-95
2022/12/13 04:14:49;;;;;;;18.62;11.88;;;;;;;-0.64;89.24;99819.65;2759503;84;21047;-92
2022/12/13 04:18:50;;;;;;;16.65;11.35;;;;;;;-0.58;88.88;99824.16;2776292;83;21026;-95
2022/12/13 04:22:52;;;;;;;16.65;12.03;;;;;;;-0.62;88.34;99825.21;2731589;85;21090;-93
2022/12/13 04:26:53;;;;;;;15.88;10.05;;;;;;;-0.62;87.19;99832.19;2758426;84;21060;-94
2022/12/13 04:30:57;;;;;;;17.62;12.45;;;;;;;-0.65;86.94;99823.18;2773393;84;21032;-95
2022/12/13 04:34:59;;;;;;;12.78;9.75;;;;;;;-0.87;84.54;99821.03;2728939;85;21199;-95
2022/12/13 04:39:04;;;;;;;13.28;8.80;;;;;;;-0.95;86.24;99817.87;2725298;84;21018;-96
2022/12/13 04:43:06;;;;;;;11.05;8.53;;;;;;;-0.96;83.62;99821.41;2734332;84;21054;-94
2022/12/13 04:47:08;;;;;;;8.63;6.20;;;;;;;-1.04;82.52;99826.94;2791977;83;21031;-94
2022/12/13 04:55:21;;;;;;;11.80;7.47;;;;;;;-1.18;83.08;99830.12;2749751;85;22328;-62
2022/12/13 04:59:22;;;;;;;9.70;6.47;;;;;;;-1.20;82.93;99825.42;2731140;87;21032;-66
2022/12/13 05:03:24;;;;;;;14.20;9.13;;;;;;;-1.25;81.58;99818.68;2743306;85;20988;-65
2022/12/13 05:07:27;;;;;;;8.35;6.58;;;;;;;-1.22;83.04;99822.47;2761875;84;21000;-64
2022/12/13 05:11:28;;;;;;;17.95;8.08;;;;;;;-1.35;83.91;99821.67;2753612;86;21066;-65
2022/12/13 05:15:30;;;;;;;16.77;9.40;;;;;;;-1.37;86.21;99824.80;2765559;85;20995;-63
2022/12/13 05:19:31;;;;;;;17.87;9.73;;;;;;;-1.18;86.96;99817.06;2693324;86;21010;-64
2022/12/13 05:23:33;;;;;;;16.10;11.10;;;;;;;-1.12;87.49;99819.89;2760865;86;21027;-64
2022/12/13 05:27:34;;;;;;;18.05;11.63;;;;;;;-1.03;88.32;99827.33;2765693;85;20959;-63
2022/12/13 05:31:36;;;;;;;19.45;11.90;;;;;;;-0.94;88.70;99823.97;2759494;85;21075;-64
2022/12/13 05:35:37;;;;;;;15.13;10.75;;;;;;;-0.89;88.57;99820.22;2765109;84;21051;-65
2022/12/13 05:39:42;;;;;;;17.20;11.00;;;;;;;-0.85;88.96;99823.56;2765443;84;21007;-64
2022/12/13 05:43:43;;;;;;;25.27;14.47;;;;;;;-0.88;89.91;99830.23;2765010;84;20996;-64
2022/12/13 05:47:46;;;;;;;20.75;13.75;;;;;;;-0.86;90.83;99836.23;2765521;85;21079;-64
2022/12/13 05:51:48;;;;;;;21.62;15.68;;;;;;;-0.83;91.09;99841.32;2737250;84;21000;-63
2022/12/13 05:55:51;;;;;;;18.98;13.98;;;;;;;-0.83;90.68;99830.88;2762989;86;21035;-63
2022/12/13 05:59:52;;;;;;;23.27;14.95;;;;;;;-0.83;90.64;99833.48;2765460;86;20960;-64
2022/12/13 06:04:11;;;;;;;19.52;13.90;;;;;;;-0.83;90.94;99826.13;2763620;86;21035;-64
2022/12/13 06:08:12;;;;;;;17.70;13.55;;;;;;;-0.84;90.60;99831.79;2765294;85;20976;-64
2022/12/13 06:12:15;;;;;;;24.07;14.53;;;;;;;-0.86;91.06;99837.54;2763798;85;21031;-63
2022/12/13 06:16:16;;;;;;;20.72;10.85;;;;;;;-0.87;91.84;99832.78;2759888;84;20968;-63
2022/12/13 06:20:18;;;;;;;17.17;13.65;;;;;;;-0.90;92.04;99836.80;2765622;85;21074;-64
2022/12/13 06:24:22;;;;;;;27.10;14.58;;;;;;;-0.90;92.07;99835.98;2763930;86;21004;-62
2022/12/13 06:28:25;;;;;;;17.55;11.70;;;;;;;-0.87;91.45;99837.15;2741472;86;21024;-64
2022/12/13 06:32:27;;;;;;;16.35;11.08;;;;;;;-0.91;91.05;99840.33;2685074;88;21027;-63
2022/12/13 06:36:35;;;;;;;19.80;11.40;;;;;;;-0.92;91.07;99845.64;2684600;87;21733;-64
2022/12/13 06:40:37;;;;;;;18.25;11.57;;;;;;;-0.94;91.25;99849.60;2685400;88;21042;-63
2022/12/13 06:44:40;;;;;;;14.68;11.85;;;;;;;-1.02;91.76;99855.14;2685189;88;21075;-63
2022/12/13 06:48:41;;;;;;;17.42;10.43;;;;;;;-1.03;92.31;99853.91;2685945;87;20984;-61
2022/12/13 06:52:46;;;;;;;20.25;12.90;;;;;;;-1.07;92.14;99857.56;2708179;87;21129;-64
2022/12/13 06:56:47;;;;;;;16.20;10.85;;;;;;;-1.14;91.15;99856.95;2723529;86;20977;-62
2022/12/13 07:00:48;;;;;;;16.45;11.55;;;;;;;-1.19;90.00;99862.36;2730221;86;21073;-64
2022/12/13 07:04:49;;;;;;;16.82;11.80;;;;;;;-1.23;89.32;99858.61;2727659;87;21032;-62
2022/12/13 07:08:54;;;;;;;16.97;10.10;;;;;;;-1.28;88.92;99865.78;2740172;87;21037;-63
2022/12/13 07:12:57;;;;;;;16.93;10.18;;;;;;;-1.39;88.63;99871.42;2737540;85;21044;-62
2022/12/13 07:16:58;;;;;;;18.95;11.93;;;;;;;-1.43;89.69;99874.59;2713394;87;21000;-65
2022/12/13 07:21:00;;;;;;;15.05;12.05;;;;;;;-1.44;91.35;99876.81;2730883;86;20992;-63
2022/12/13 07:29:09;;;;;;;18.00;11.73;;;;;;;-1.25;92.22;99883.92;2806464;83;21071;-96
2022/12/13 07:33:11;;;;;;;14.75;9.43;;;;;;;-1.18;91.86;99886.23;2803086;83;21008;-96
2022/12/13 07:37:13;;;;;;;16.35;10.00;;;;;;;-1.11;91.07;99888.59;2813918;82;21019;-92
2022/12/13 07:41:15;;;;;;;12.28;8.80;;;;;;;-1.13;90.42;99895.20;2821620;83;21084;-96
2022/12/13 07:45:17;;;;;;;15.45;8.65;;;;;;;-1.13;90.40;99899.12;2798167;83;21016;-94
2022/12/13 07:49:19;;;;;;;14.25;9.75;;;;;;;-1.11;89.98;99900.34;2788832;83;21040;-93
2022/12/13 07:53:21;;;;;;;12.05;9.73;;;;;;;-1.08;89.66;99895.86;2837044;82;21009;-93
2022/12/13 07:57:22;;;;;;;13.25;8.70;;;;;;;-1.08;89.66;99895.86;2807655;82;21004;-92
2022/12/13 08:01:24;;;;;;;16.93;8.30;;;;;;;-1.07;88.69;99896.25;2820422;82;21080;-92
2022/12/13 08:05:28;;;;;;;17.73;9.33;;;;;;;-1.12;87.71;99895.59;2776224;83;21090;-95
2022/12/13 08:09:29;;;;;;;15.10;10.32;;;;;;;-1.16;87.44;99900.55;2800731;81;20988;-94
2022/12/13 08:13:31;;;;;;;13.13;10.05;;;;;;;-1.17;87.54;99901.46;2820331;83;21027;-94
2022/12/13 08:17:34;;;;;;;15.68;10.38;;;;;;;-1.13;89.19;99899.56;2815984;83;20984;-91
2022/12/13 08:21:39;;;;;;;13.55;9.90;;;;;;;-1.01;90.65;99903.83;2804408;83;21366;-96
2022/12/13 08:25:41;;;;;;;16.50;10.10;;;;;;;-0.87;90.49;99899.83;2819039;82;21031;-96
2022/12/13 08:29:42;;;;;;;15.13;10.38;;;;;;;-0.77;88.48;99898.99;2811926;82;21097;-94
2022/12/13 08:33:47;;;;;;;12.88;8.50;;;;;;;-0.69;87.35;99892.98;2791152;84;21058;-92
2022/12/13 08:37:49;;;;;;;21.00;11.90;;;;;;;-0.60;87.68;99895.67;2820340;84;21061;-93
2022/12/13 08:41:50;;;;;;;15.53;9.20;;;;;;;-0.58;88.35;99901.23;2761849;82;21067;-95
2022/12/13 08:45:52;;;;;;;13.40;9.00;;;;;;;-0.52;88.17;99897.52;2810022;82;21103;-95
2022/12/13 08:50:00;;;;;;;17.50;11.43;;;;;;;-0.46;87.90;99903.78;2795608;84;21042;-92
2022/12/13 08:54:02;;;;;;;15.25;8.78;;;;;;;-0.38;87.15;99906.08;2820410;82;21526;-96
2022/12/13 08:58:08;;;;;;;12.40;8.15;;;;;;;-0.31;86.83;99910.12;2797718;82;21119;-92
2022/12/13 09:02:13;;;;;;;13.40;7.87;;;;;;;-0.33;85.89;99902.80;2818125;82;21038;-95
2022/12/13 09:06:16;;;;;;;19.02;8.68;;;;;;;-0.40;85.16;99906.61;2795637;84;21046;-93
2022/12/13 09:10:17;;;;;;;11.70;8.15;;;;;;;-0.43;85.61;99915.89;2814375;82;21054;-95
2022/12/13 09:14:19;;;;;;;15.23;9.65;;;;;;;-0.41;86.44;99911.44;2806201;82;20979;-95
2022/12/13 09:18:21;;;;;;;20.27;10.30;;;;;;;-0.40;87.15;99913.14;2805009;82;21574;-93
2022/12/13 09:22:22;;;;;;;15.58;10.18;;;;;;;-0.45;88.27;99917.72;2826937;84;21144;-92
2022/12/13 09:26:24;;;;;;;15.03;9.95;;;;;;;-0.47;88.42;99923.00;2809335;82;21595;-92
2022/12/13 09:30:26;;;;;;;16.32;8.90;;;;;;;-0.49;86.96;99921.34;2784420;83;21040;-91
2022/12/13 09:34:28;;;;;;;13.03;9.33;;;;;;;-0.46;86.10;99919.47;2812964;83;21004;-91
2022/12/13 09:38:30;;;;;;;13.05;8.28;;;;;;;-0.39;85.24;99921.81;2807505;83;21253;-92
2022/12/13 09:42:34;;;;;;;11.38;7.83;;;;;;;-0.38;85.23;99928.77;2813236;83;21394;-92
2022/12/13 09:46:41;;;;;;;13.78;7.92;;;;;;;-0.40;86.20;99933.18;2807510;83;21020;-95
2022/12/13 09:50:44;;;;;;;13.05;7.47;;;;;;;-0.28;86.22;99927.45;2808099;82;21048;-93
2022/12/13 09:54:46;;;;;;;13.78;8.05;;;;;;;-0.18;85.81;99921.37;2823587;82;21052;-96
2022/12/13 09:58:55;;;;;;;11.70;7.15;;;;;;;-0.12;85.62;99921.56;2786884;83;21076;-95
2022/12/13 10:02:57;;;;;;;10.32;7.78;;;;;;;-0.09;83.84;99920.13;2808218;83;21710;-95
2022/12/13 10:07:00;;;;;;;10.63;6.17;;;;;;;-0.08;83.56;99916.14;2817643;83;21064;-95
2022/12/13 10:11:03;;;;;;;11.43;7.10;;;;;;;-0.15;83.18;99917.31;2812934;83;21095;-95
2022/12/13 10:15:07;;;;;;;16.40;8.23;;;;;;;-0.10;83.19;99909.27;2821367;82;21071;-92
2022/12/13 10:19:29;;;;;;;15.40;9.08;;;;;;;-0.20;82.74;99905.73;2800424;83;21044;-96
2022/12/13 10:23:30;;;;;;;11.03;7.12;;;;;;;-0.19;83.78;99911.38;2814811;81;21047;-96
2022/12/13 10:27:42;;;;;;;12.05;6.50;;;;;;;-0.22;83.39;99908.87;2794861;84;21051;-92
2022/12/13 10:31:49;;;;;;;12.05;7.95;;;;;;;-0.03;84.44;99908.08;2799403;84;21012;-94
2022/12/13 10:36:08;;;;;;;9.83;6.90;;;;;;;0.05;82.42;99901.20;2793286;82;21031;-96
2022/12/13 10:40:25;;;;;;;10.58;7.05;;;;;;;0.02;81.21;99906.12;2795088;84;21011;-96
2022/12/13 10:44:27;;;;;;;14.78;7.87;;;;;;;-0.04;81.46;99907.24;2808916;82;21614;-96
2022/12/13 10:48:39;;;;;;;7.55;5.37;;;;;;;0.04;81.01;99903.42;2796505;84;21059;-96
2022/12/13 10:52:46;;;;;;;13.40;7.65;;;;;;;0.16;81.45;99900.72;2789942;82;21052;-96
2022/12/13 10:56:52;;;;;;;10.85;7.15;;;;;;;0.39;81.22;99904.48;2811538;83;21031;-93
2022/12/13 11:00:55;;;;;;;;;;;;;;;0.55;81.38;99902.00;2826937;82;21042;-93
2022/12/13 11:04:59;;;;;;;10.40;6.95;;;;;;;0.55;80.09;99904.61;2765558;84;20100;-95
2022/12/13 11:09:01;;;;;;;9.03;5.92;;;;;;;0.44;79.99;99907.34;2820084;82;21062;-92
2022/12/13 11:13:06;;;;;;;11.30;6.10;;;;;;;0.34;79.89;99902.51;2773284;82;21050;-94
2022/12/13 11:17:15;;;;;;;10.40;7.33;;;;;;;0.26;80.02;99903.33;2796727;84;21031;-93
2022/12/13 11:21:27;;;;;;;12.33;6.83;;;;;;;0.14;79.22;99900.34;2795202;84;21087;-95
2022/12/13 11:25:42;;;;;;;11.12;6.40;;;;;;;0.09;80.12;99901.45;2819792;82;21070;-94
2022/12/13 11:30:05;;;;;;;9.90;5.67;;;;;;;-0.09;80.79;99895.28;2789938;83;21556;-96
2022/12/13 11:34:31;;;;;;;11.48;7.42;;;;;;;-0.04;80.26;99896.78;2772294;83;20988;-96
2022/12/13 11:38:51;;;;;;;8.75;6.33;;;;;;;0.21;80.82;99898.77;2800513;83;21988;-96
2022/12/13 11:43:17;;;;;;;9.43;5.75;;;;;;;0.41;80.34;99894.79;2793690;83;21133;-94
2022/12/13 11:47:24;;;;;;;11.05;7.65;;;;;;;0.49;79.40;99890.95;2781421;83;20995;-89
2022/12/13 11:51:36;;;;;;;8.25;5.22;;;;;;;0.56;79.87;99896.28;2767427;83;21592;-92
2022/12/13 11:55:45;;;;;;;15.88;6.37;;;;;;;0.71;79.01;99906.52;2754045;85;21022;-93
2022/12/13 11:59:58;;;;;;;12.15;6.12;;;;;;;0.67;77.42;99897.95;2759382;85;21058;-96
2022/12/13 12:04:15;;;;;;;9.88;6.87;;;;;;;0.62;77.46;99896.02;2760107;85;21114;-96
2022/12/13 12:08:38;;;;;;;10.13;5.80;;;;;;;0.48;77.63;99907.58;2758982;83;21066;-95
2022/12/13 12:12:45;;;;;;;6.87;6.15;;;;;;;0.34;76.43;99906.44;2787879;83;21062;-93
2022/12/13 12:16:54;;;;;;;8.93;6.72;;;;;;;0.20;76.95;99910.16;2793191;83;21004;-93
2022/12/13 12:21:32;;;;;;;9.63;6.42;;;;;;;0.10;78.09;99904.02;2779403;83;21012;-93
2022/12/13 12:25:57;;;;;;;7.25;6.05;;;;;;;0.01;78.11;99907.49;2793842;83;21055;-93
2022/12/13 12:30:19;;;;;;;11.90;6.53;;;;;;;-0.07;78.21;99904.77;2805722;83;21046;-96
2022/12/13 12:34:35;;;;;;;11.90;7.17;;;;;;;-0.16;78.75;99903.84;2791925;82;21063;-96
2022/12/13 12:39:13;;;;;;;8.83;6.65;;;;;;;-0.21;78.40;99900.11;2823075;82;21042;-95
2022/12/13 12:43:42;;;;;;;8.23;5.67;;;;;;;-0.27;77.81;99891.23;2818859;82;21022;-94
2022/12/13 12:47:58;;;;;;;8.08;5.22;;;;;;;-0.40;78.50;99890.06;2800635;83;21066;-93
2022/12/13 12:52:04;;;;;;;11.48;7.15;;;;;;;-0.42;79.33;99889.28;2828806;82;21054;-95
2022/12/13 12:56:21;;;;;;;11.57;7.15;;;;;;;-0.45;78.86;99884.58;2782865;83;21081;-96
2022/12/13 13:00:24;;;;;;;9.40;6.70;;;;;;;-0.42;78.87;99885.36;2828519;82;21027;-92
2022/12/13 13:04:38;;;;;;;8.65;5.90;;;;;;;-0.48;79.24;99889.94;2825424;82;21062;-93
2022/12/13 13:09:01;;;;;;;11.33;7.37;;;;;;;-0.46;79.17;99889.41;2822955;82;21074;-95
2022/12/13 13:13:02;;;;;;;10.98;5.92;;;;;;;-0.52;78.88;99893.60;2812405;82;21058;-95
2022/12/13 13:17:30;;;;;;;9.70;6.17;;;;;;;-0.47;79.60;99898.17;2820261;82;21054;-95
2022/12/13 13:21:45;;;;;;;8.03;5.15;;;;;;;-0.45;79.20;99897.64;2826553;82;20987;-93
2022/12/13 13:25:54;;;;;;;14.63;6.87;;;;;;;-0.50;78.39;99895.69;2783144;83;21097;-93
2022/12/13 13:39:04;;;;;;;7.35;5.47;;;;;;;-0.60;78.36;99908.73;2725698;84;21150;-93
2022/12/13 13:43:15;;;;;;;10.70;7.78;;;;;;;-0.63;78.55;99918.01;2724943;84;21047;-96
2022/12/13 13:47:22;;;;;;;8.40;5.47;;;;;;;-0.60;78.42;99919.19;2733676;84;21113;-94
2022/12/13 13:51:47;;;;;;;9.33;5.47;;;;;;;-0.61;77.85;99919.66;2727780;86;21491;-94
2022/12/13 13:56:12;;;;;;;8.45;6.87;;;;;;;-0.62;77.51;99918.41;2611792;89;21080;-96
2022/12/13 14:00:38;;;;;;;9.90;7.17;;;;;;;-0.63;77.17;99927.16;2588010;90;21059;-95
2022/12/13 14:05:15;;;;;;;9.35;6.83;;;;;;;-0.66;76.89;99927.28;2578473;89;21095;-91
2022/12/13 14:09:58;;;;;;;8.60;7.08;;;;;;;-0.68;76.99;99931.28;2609268;89;21225;-90
2022/12/13 14:14:41;;;;;;;14.40;7.75;;;;;;;-0.73;76.82;99933.20;2599071;89;21043;-90
2022/12/13 14:19:27;;;;;;;13.00;9.20;;;;;;;-0.74;76.53;99932.81;2526303;92;21193;-89
2022/12/13 14:24:05;;;;;;;19.02;10.70;;;;;;;-0.59;77.18;99943.09;2546299;91;21081;-90
2022/12/13 14:28:30;;;;;;;16.32;8.20;;;;;;;-0.47;76.56;99940.45;2513029;92;21114;-86
2022/12/13 14:32:35;;;;;;;14.35;7.90;;;;;;;-0.59;75.26;99940.03;2704217;85;21119;-89
2022/12/13 14:36:37;;;;;;;16.97;11.17;;;;;;;-0.84;75.49;99948.01;2746607;84;20971;-88
2022/12/13 14:40:49;;;;;;;18.37;13.08;;;;;;;-1.04;75.78;99947.51;2754218;84;21039;-89
2022/12/13 14:44:51;;;;;;;20.30;11.95;;;;;;;-1.14;76.55;99949.63;2769604;84;21029;-90
2022/12/13 14:48:53;;;;;;;17.35;11.08;;;;;;;-1.18;77.26;99949.33;2751010;85;21499;-88
2022/12/13 14:52:56;;;;;;;36.38;19.07;;;;;;;-1.20;77.82;99945.93;2748696;84;21572;-85
2022/12/13 14:57:01;;;;;;;17.55;10.95;;;;;;;-1.20;78.17;99948.53;2776884;85;21594;-90
2022/12/13 15:01:24;;;;;;;19.30;10.23;;;;;;;-1.24;79.33;99939.13;2753193;84;21629;-91
2022/12/13 15:05:49;;;;;;;17.35;9.98;;;;;;;-1.16;79.57;99947.53;2765239;84;21062;-90
2022/12/13 15:10:00;;;;;;;14.55;9.55;;;;;;;-1.14;79.63;99952.23;2679775;87;21131;-90
2022/12/13 15:14:02;;;;;;;17.17;11.53;;;;;;;-0.96;79.33;99951.96;2668112;86;21109;-90
2022/12/13 15:18:21;;;;;;;13.48;9.48;;;;;;;-0.89;77.97;99957.80;2772070;84;21594;-88
2022/12/13 15:22:24;;;;;;;14.25;9.88;;;;;;;-0.96;76.17;99956.34;2776386;84;21684;-88
2022/12/13 15:26:26;;;;;;;17.30;10.10;;;;;;;-1.43;76.94;99951.57;2686793;87;21057;-92
2022/12/13 15:30:32;;;;;;;15.43;10.58;;;;;;;-1.73;78.89;99954.42;2673022;87;21068;-89
2022/12/13 15:34:36;;;;;;;22.85;12.00;;;;;;;-1.88;80.14;99957.97;2754556;85;21534;-91
2022/12/13 15:38:55;;;;;;;22.30;13.38;;;;;;;-1.73;80.75;99960.47;2662582;88;21079;-90
2022/12/13 15:42:57;;;;;;;20.45;12.60;;;;;;;-1.50;80.55;99954.86;2735303;86;21594;-91
2022/12/13 15:47:04;;;;;;;27.13;15.93;;;;;;;-1.50;80.55;99954.86;2749628;85;21019;-92
2022/12/13 15:51:17;;;;;;;19.82;12.47;;;;;;;-1.46;79.81;99954.30;2757700;85;21626;-90
2022/12/13 15:55:23;;;;;;;17.87;12.70;;;;;;;-1.47;79.60;99953.91;2759253;84;21007;-90
2022/12/13 15:59:31;;;;;;;22.07;14.40;;;;;;;-1.43;79.95;99950.27;2757460;85;21027;-91
2022/12/13 16:03:42;;;;;;;20.30;13.10;;;;;;;-1.32;79.16;99954.64;2755205;84;21006;-91
2022/12/13 16:07:47;;;;;;;17.85;11.50;;;;;;;-1.24;78.93;99958.27;2755655;84;21035;-89
2022/12/13 16:11:58;;;;;;;16.52;10.78;;;;;;;-1.10;78.80;99960.34;2756300;86;20999;-89
2022/12/13 16:16:26;;;;;;;16.70;11.15;;;;;;;-1.03;77.58;99954.43;2732277;86;21026;-89
2022/12/13 16:20:27;;;;;;;;;;;;;;;-1.06;77.52;99963.22;2759766;85;21045;-90
2022/12/13 16:24:28;;;;;;;19.32;12.33;;;;;;;-1.04;78.03;99957.48;2757004;86;20654;-89
2022/12/13 16:28:29;;;;;;;17.92;12.68;;;;;;;-0.96;78.13;99958.96;2769904;83;20990;-88
2022/12/13 16:32:30;;;;;;;27.95;15.83;;;;;;;-1.04;77.81;99960.09;2757470;85;20987;-87
2022/12/13 16:36:32;;;;;;;35.15;19.60;;;;;;;-0.92;78.79;99961.84;2741400;84;20944;-88
2022/12/13 16:40:34;;;;;;;28.17;17.25;;;;;;;-0.84;78.20;99952.40;2755321;84;29294;-89
2022/12/13 16:44:37;;;;;;;35.60;16.15;;;;;;;-1.03;77.53;99952.66;2780497;84;21094;-89
2022/12/13 16:48:39;;;;;;;37.63;20.43;;;;;;;-1.12;77.58;99954.33;2730165;84;21007;-88
2022/12/13 16:52:40;;;;;;;27.22;16.65;;;;;;;-1.19;78.33;99948.93;2709101;85;21479;-90
2022/12/13 16:56:42;;;;;;;28.87;18.05;;;;;;;-1.24;77.65;99946.52;2750547;84;21010;-89
2022/12/13 17:00:44;;;;;;;33.53;20.05;;;;;;;-1.29;77.71;99949.73;2753618;85;20975;-90
2022/12/13 17:04:45;;;;;;;26.15;18.12;;;;;;;-1.30;78.42;99950.65;2777532;84;21059;-89
2022/12/13 17:08:47;;;;;;;27.85;14.10;;;;;;;-1.26;78.20;99954.00;2777854;84;21616;-89
2022/12/13 17:12:49;;;;;;;23.98;15.20;;;;;;;-1.26;77.50;99950.95;2775733;84;21006;-89
2022/12/13 17:16:50;;;;;;;52.03;26.10;;;;;;;-1.26;77.94;99950.09;2777722;84;21555;-89
2022/12/13 17:20:51;;;;;;;36.55;18.55;;;;;;;-1.26;77.92;99948.78;2753834;85;21444;-89
2022/12/13 17:24:52;;;;;;;34.27;20.10;;;;;;;-1.16;78.15;99951.45;2777906;85;21066;-89
2022/12/13 17:28:54;;;;;;;45.90;25.80;;;;;;;-1.11;78.17;99949.50;2777855;84;21019;-89
2022/12/13 17:32:57;;;;;;;53.45;26.55;;;;;;;-1.08;77.99;99959.82;2773915;84;21089;-90
2022/12/13 17:36:59;;;;;;;48.30;22.13;;;;;;;-0.99;77.84;99952.09;2682579;87;21078;-89
2022/12/13 17:41:00;;;;;;;53.90;34.90;;;;;;;-0.97;77.00;99957.27;2670534;87;21205;-89
2022/12/13 17:45:02;;;;;;;71.82;41.40;;;;;;;-0.95;77.79;99967.19;2654277;87;21093;-87
2022/12/13 17:49:03;;;;;;;51.37;28.52;;;;;;;-0.99;77.59;99963.84;2671069;87;21646;-89
2022/12/13 17:53:05;;;;;;;44.48;27.65;;;;;;;-1.20;78.01;99968.11;2672077;87;21132;-89
2022/12/13 17:57:09;;;;;;;57.25;32.35;;;;;;;-1.31;78.42;99968.08;2671507;87;21097;-89
2022/12/13 18:01:12;;;;;;;59.73;33.98;;;;;;;-1.48;78.77;99970.47;2670967;87;22223;-88
2022/12/13 18:05:14;;;;;;;49.30;32.80;;;;;;;-1.48;78.77;99970.47;2670725;87;21121;-88
2022/12/13 18:09:15;;;;;;;47.95;34.15;;;;;;;-1.52;79.60;99971.50;2761962;86;21616;-88
2022/12/13 18:13:16;;;;;;;54.55;37.17;;;;;;;-1.43;79.19;99969.84;2765020;84;21011;-90
2022/12/13 18:17:18;;;;;;;63.15;38.67;;;;;;;-1.39;78.99;99969.28;2762236;84;21038;-88
2022/12/13 18:21:19;;;;;;;111.90;67.55;;;;;;;-1.34;78.88;99972.55;2732980;84;21042;-89
2022/12/13 18:25:20;;;;;;;63.92;40.55;;;;;;;-1.47;79.31;99968.25;2768087;84;21745;-91
2022/12/13 18:29:21;;;;;;;52.27;33.78;;;;;;;-1.39;79.57;99970.58;2767783;84;20964;-89
2022/12/13 18:33:23;;;;;;;51.98;29.85;;;;;;;-1.40;79.21;99968.41;2771785;84;21011;-93
2022/12/13 18:37:25;;;;;;;72.92;41.05;;;;;;;-1.61;80.19;99968.77;2770837;83;21028;-90
2022/12/13 18:41:29;;;;;;;196.82;96.85;;;;;;;-1.82;80.41;99959.95;2746461;85;21072;-95
2022/12/13 18:45:31;;;;;;;126.75;61.50;;;;;;;-1.81;80.28;99961.66;2744480;85;21012;-91
2022/12/13 18:49:32;;;;;;;116.10;62.35;;;;;;;-1.81;80.28;99961.66;2743960;85;21054;-88
2022/12/13 18:53:37;;;;;;;119.17;67.25;;;;;;;-1.80;80.31;99965.52;2712659;85;21057;-91
2022/12/13 18:57:38;;;;;;;102.47;53.30;;;;;;;-1.82;79.75;99965.16;2736333;85;21063;-93
2022/12/13 19:01:40;;;;;;;65.00;40.35;;;;;;;-1.91;79.73;99953.30;2722510;86;21048;-95
2022/12/13 19:05:42;;;;;;;69.20;40.70;;;;;;;-1.78;79.44;99962.84;2743565;85;20980;-95
2022/12/13 19:09:43;;;;;;;55.40;35.68;;;;;;;-1.82;78.97;99960.81;2736931;85;20984;-94
2022/12/13 19:13:46;;;;;;;63.33;37.23;;;;;;;-1.82;78.56;99963.86;2746706;85;21031;-91
2022/12/13 19:17:47;;;;;;;61.75;36.75;;;;;;;-1.91;78.42;99971.12;2757399;85;21332;-90
2022/12/13 19:21:49;;;;;;;67.75;38.53;;;;;;;-2.19;77.61;99952.98;2742104;85;21099;-94
2022/12/13 19:25:50;;;;;;;89.45;47.13;;;;;;;-2.19;77.61;99952.98;2742209;85;21602;-94